sensor_id;sensor_type;location;lat;lon;timestamp;temperature;humidity
21238;DHT22;10777;50.828;3.264;2022-10-16T00:00:16;15.80;99.90
21238;DHT22;10777;50.828;3.264;2022-10-16T00:02:42;15.80;99.90
21238;DHT22;10777;50.828;3.264;2022-10-16T00:05:07;15.90;99.90
21238;DHT22;10777;50.828;3.264;2022-10-16T00:07:33;16.00;99.90
21238;DHT22;10777;50.828;3.264;2022-10-16T00:09:59;16.10;99.90
21238;DHT22;10777;50.828;3.264;2022-10-16T00:12:24;15.90;99.90
21238;DHT22;10777;50.828;3.264;2022-10-16T00:14:50;15.80;99.90
21238;DHT22;10777;50.828;3.264;2022-10-16T00:17:15;15.90;99.90
21238;DHT22;10777;50.828;3.264;2022-10-16T00:19:41;16.00;99.90
21238;DHT22;10777;50.828;3.264;2022-10-16T00:22:06;15.90;99.90
21238;DHT22;10777;50.828;3.264;2022-10-16T00:24:32;15.80;99.90
21238;DHT22;10777;50.828;3.264;2022-10-16T00:26:58;15.50;99.90
21238;DHT22;10777;50.828;3.264;2022-10-16T00:29:23;15.50;99.90
21238;DHT22;10777;50.828;3.264;2022-10-16T00:34:17;15.40;99.90
21238;DHT22;10777;50.828;3.264;2022-10-16T00:36:42;15.40;99.90
21238;DHT22;10777;50.828;3.264;2022-10-16T00:39:08;15.30;99.90
21238;DHT22;10777;50.828;3.264;2022-10-16T00:41:34;15.30;99.90
21238;DHT22;10777;50.828;3.264;2022-10-16T00:44:03;15.40;99.90
21238;DHT22;10777;50.828;3.264;2022-10-16T00:46:38;15.50;99.90
21238;DHT22;10777;50.828;3.264;2022-10-16T00:49:10;15.30;99.90
21238;DHT22;10777;50.828;3.264;2022-10-16T00:51:39;15.40;99.90
21238;DHT22;10777;50.828;3.264;2022-10-16T00:54:10;15.30;99.90
21238;DHT22;10777;50.828;3.264;2022-10-16T00:56:36;15.10;99.90
21238;DHT22;10777;50.828;3.264;2022-10-16T00:59:06;14.80;99.90
21238;DHT22;10777;50.828;3.264;2022-10-16T01:01:34;15.10;99.90
21238;DHT22;10777;50.828;3.264;2022-10-16T01:03:59;15.30;99.90
21238;DHT22;10777;50.828;3.264;2022-10-16T01:06:38;15.40;99.90
21238;DHT22;10777;50.828;3.264;2022-10-16T01:09:16;15.30;99.90
21238;DHT22;10777;50.828;3.264;2022-10-16T01:11:55;15.50;99.90
21238;DHT22;10777;50.828;3.264;2022-10-16T01:14:48;15.60;99.90
21238;DHT22;10777;50.828;3.264;2022-10-16T01:17:25;15.30;99.90
21238;DHT22;10777;50.828;3.264;2022-10-16T01:20:03;15.20;99.90
21238;DHT22;10777;50.828;3.264;2022-10-16T01:22:44;15.00;99.90
21238;DHT22;10777;50.828;3.264;2022-10-16T01:25:22;15.20;99.90
21238;DHT22;10777;50.828;3.264;2022-10-16T01:27:51;15.10;99.90
21238;DHT22;10777;50.828;3.264;2022-10-16T01:30:23;15.00;99.90
21238;DHT22;10777;50.828;3.264;2022-10-16T01:32:55;15.00;99.90
21238;DHT22;10777;50.828;3.264;2022-10-16T01:35:32;15.00;99.90
21238;DHT22;10777;50.828;3.264;2022-10-16T01:38:05;15.00;99.90
21238;DHT22;10777;50.828;3.264;2022-10-16T01:40:34;14.90;99.90
21238;DHT22;10777;50.828;3.264;2022-10-16T01:43:06;15.00;99.90
21238;DHT22;10777;50.828;3.264;2022-10-16T01:45:34;15.20;99.90
21238;DHT22;10777;50.828;3.264;2022-10-16T01:48:02;15.30;99.90
21238;DHT22;10777;50.828;3.264;2022-10-16T01:50:33;15.10;99.90
21238;DHT22;10777;50.828;3.264;2022-10-16T01:53:02;15.00;99.90
21238;DHT22;10777;50.828;3.264;2022-10-16T01:55:33;15.20;99.90
21238;DHT22;10777;50.828;3.264;2022-10-16T01:58:02;15.20;99.90
21238;DHT22;10777;50.828;3.264;2022-10-16T02:00:30;15.50;99.90
21238;DHT22;10777;50.828;3.264;2022-10-16T02:02:57;15.30;99.90
21238;DHT22;10777;50.828;3.264;2022-10-16T02:05:34;15.20;99.90
21238;DHT22;10777;50.828;3.264;2022-10-16T02:08:03;15.20;99.90
21238;DHT22;10777;50.828;3.264;2022-10-16T02:10:28;15.30;99.90
21238;DHT22;10777;50.828;3.264;2022-10-16T02:13:02;15.20;99.90
21238;DHT22;10777;50.828;3.264;2022-10-16T02:15:29;15.00;99.90
21238;DHT22;10777;50.828;3.264;2022-10-16T02:17:54;15.10;99.90
21238;DHT22;10777;50.828;3.264;2022-10-16T02:20:25;15.10;99.90
21238;DHT22;10777;50.828;3.264;2022-10-16T02:22:54;15.10;99.90
21238;DHT22;10777;50.828;3.264;2022-10-16T02:25:27;15.10;99.90
21238;DHT22;10777;50.828;3.264;2022-10-16T02:28:03;14.90;99.90
21238;DHT22;10777;50.828;3.264;2022-10-16T02:30:38;15.10;99.90
21238;DHT22;10777;50.828;3.264;2022-10-16T02:33:07;15.10;99.90
21238;DHT22;10777;50.828;3.264;2022-10-16T02:35:35;15.00;99.90
21238;DHT22;10777;50.828;3.264;2022-10-16T02:38:02;15.10;99.90
21238;DHT22;10777;50.828;3.264;2022-10-16T02:40:28;15.20;99.90
21238;DHT22;10777;50.828;3.264;2022-10-16T02:42:55;15.50;99.90
21238;DHT22;10777;50.828;3.264;2022-10-16T02:45:21;15.40;99.90
21238;DHT22;10777;50.828;3.264;2022-10-16T02:47:47;15.40;99.90
21238;DHT22;10777;50.828;3.264;2022-10-16T02:50:13;15.20;99.90
21238;DHT22;10777;50.828;3.264;2022-10-16T02:52:38;15.20;99.90
21238;DHT22;10777;50.828;3.264;2022-10-16T02:55:05;15.20;99.90
21238;DHT22;10777;50.828;3.264;2022-10-16T02:57:30;15.20;99.90
21238;DHT22;10777;50.828;3.264;2022-10-16T02:59:57;15.00;99.90
21238;DHT22;10777;50.828;3.264;2022-10-16T03:02:22;15.10;99.90
21238;DHT22;10777;50.828;3.264;2022-10-16T03:04:48;15.10;99.90
21238;DHT22;10777;50.828;3.264;2022-10-16T03:07:14;15.00;99.90
21238;DHT22;10777;50.828;3.264;2022-10-16T03:09:39;15.10;99.90
21238;DHT22;10777;50.828;3.264;2022-10-16T03:12:05;15.20;99.90
21238;DHT22;10777;50.828;3.264;2022-10-16T03:14:31;15.40;99.90
21238;DHT22;10777;50.828;3.264;2022-10-16T03:16:56;15.30;99.90
21238;DHT22;10777;50.828;3.264;2022-10-16T03:19:22;15.30;99.90
21238;DHT22;10777;50.828;3.264;2022-10-16T03:21:48;15.10;99.90
21238;DHT22;10777;50.828;3.264;2022-10-16T03:24:13;15.10;99.90
21238;DHT22;10777;50.828;3.264;2022-10-16T03:26:39;14.90;99.90
21238;DHT22;10777;50.828;3.264;2022-10-16T03:29:05;14.90;99.90
21238;DHT22;10777;50.828;3.264;2022-10-16T03:31:31;15.10;99.90
21238;DHT22;10777;50.828;3.264;2022-10-16T03:33:57;15.10;99.90
21238;DHT22;10777;50.828;3.264;2022-10-16T03:36:23;15.00;99.90
21238;DHT22;10777;50.828;3.264;2022-10-16T03:38:48;15.00;99.90
21238;DHT22;10777;50.828;3.264;2022-10-16T03:41:14;14.90;99.90
21238;DHT22;10777;50.828;3.264;2022-10-16T03:43:40;14.80;99.90
21238;DHT22;10777;50.828;3.264;2022-10-16T03:46:05;15.00;99.90
21238;DHT22;10777;50.828;3.264;2022-10-16T03:48:31;15.10;99.90
21238;DHT22;10777;50.828;3.264;2022-10-16T03:50:57;14.80;99.90
21238;DHT22;10777;50.828;3.264;2022-10-16T03:53:23;14.90;99.90
21238;DHT22;10777;50.828;3.264;2022-10-16T03:55:48;15.00;99.90
21238;DHT22;10777;50.828;3.264;2022-10-16T03:58:14;15.00;99.90
21238;DHT22;10777;50.828;3.264;2022-10-16T04:00:42;15.10;99.90
21238;DHT22;10777;50.828;3.264;2022-10-16T04:03:08;15.10;99.90
21238;DHT22;10777;50.828;3.264;2022-10-16T04:05:34;15.00;99.90
21238;DHT22;10777;50.828;3.264;2022-10-16T04:08:00;14.90;99.90
21238;DHT22;10777;50.828;3.264;2022-10-16T04:10:25;14.90;99.90
21238;DHT22;10777;50.828;3.264;2022-10-16T04:12:51;14.90;99.90
21238;DHT22;10777;50.828;3.264;2022-10-16T04:15:17;14.80;99.90
21238;DHT22;10777;50.828;3.264;2022-10-16T04:17:42;14.80;99.90
21238;DHT22;10777;50.828;3.264;2022-10-16T04:20:08;14.70;99.90
21238;DHT22;10777;50.828;3.264;2022-10-16T04:22:34;14.60;99.90
21238;DHT22;10777;50.828;3.264;2022-10-16T04:24:59;14.70;99.90
21238;DHT22;10777;50.828;3.264;2022-10-16T04:27:25;14.80;99.90
21238;DHT22;10777;50.828;3.264;2022-10-16T04:29:50;14.70;99.90
21238;DHT22;10777;50.828;3.264;2022-10-16T04:32:16;14.60;99.90
21238;DHT22;10777;50.828;3.264;2022-10-16T04:34:42;14.50;99.90
21238;DHT22;10777;50.828;3.264;2022-10-16T04:37:07;14.40;99.90
21238;DHT22;10777;50.828;3.264;2022-10-16T04:39:33;14.40;99.90
21238;DHT22;10777;50.828;3.264;2022-10-16T04:41:58;14.40;99.90
21238;DHT22;10777;50.828;3.264;2022-10-16T04:44:24;14.50;99.90
21238;DHT22;10777;50.828;3.264;2022-10-16T04:46:51;14.50;99.90
21238;DHT22;10777;50.828;3.264;2022-10-16T04:49:17;14.60;99.90
21238;DHT22;10777;50.828;3.264;2022-10-16T04:51:42;14.60;99.90
21238;DHT22;10777;50.828;3.264;2022-10-16T04:54:09;14.60;99.90
21238;DHT22;10777;50.828;3.264;2022-10-16T04:56:35;14.50;99.90
21238;DHT22;10777;50.828;3.264;2022-10-16T04:59:08;14.70;99.90
21238;DHT22;10777;50.828;3.264;2022-10-16T05:01:33;14.80;99.90
21238;DHT22;10777;50.828;3.264;2022-10-16T05:03:59;14.70;99.90
21238;DHT22;10777;50.828;3.264;2022-10-16T05:06:24;14.60;99.90
21238;DHT22;10777;50.828;3.264;2022-10-16T05:08:50;14.70;99.90
21238;DHT22;10777;50.828;3.264;2022-10-16T05:11:16;14.80;99.90
21238;DHT22;10777;50.828;3.264;2022-10-16T05:13:42;15.00;99.90
21238;DHT22;10777;50.828;3.264;2022-10-16T05:16:07;15.10;99.90
21238;DHT22;10777;50.828;3.264;2022-10-16T05:18:33;15.20;99.90
21238;DHT22;10777;50.828;3.264;2022-10-16T05:20:58;15.30;99.90
21238;DHT22;10777;50.828;3.264;2022-10-16T05:23:24;15.30;99.90
21238;DHT22;10777;50.828;3.264;2022-10-16T05:25:54;15.40;99.90
21238;DHT22;10777;50.828;3.264;2022-10-16T05:28:21;15.60;99.90
21238;DHT22;10777;50.828;3.264;2022-10-16T05:30:46;15.50;99.90
21238;DHT22;10777;50.828;3.264;2022-10-16T05:33:12;15.50;99.90
21238;DHT22;10777;50.828;3.264;2022-10-16T05:35:38;15.50;99.90
21238;DHT22;10777;50.828;3.264;2022-10-16T05:38:04;15.50;99.90
21238;DHT22;10777;50.828;3.264;2022-10-16T05:40:29;15.50;99.90
21238;DHT22;10777;50.828;3.264;2022-10-16T05:42:55;15.50;99.90
21238;DHT22;10777;50.828;3.264;2022-10-16T05:45:21;15.60;99.90
21238;DHT22;10777;50.828;3.264;2022-10-16T05:47:47;15.60;99.90
21238;DHT22;10777;50.828;3.264;2022-10-16T05:50:12;15.50;99.90
21238;DHT22;10777;50.828;3.264;2022-10-16T05:52:38;15.40;99.90
21238;DHT22;10777;50.828;3.264;2022-10-16T05:55:04;15.60;99.90
21238;DHT22;10777;50.828;3.264;2022-10-16T05:57:30;15.30;99.90
21238;DHT22;10777;50.828;3.264;2022-10-16T05:59:55;15.20;99.90
21238;DHT22;10777;50.828;3.264;2022-10-16T06:02:21;15.10;99.90
21238;DHT22;10777;50.828;3.264;2022-10-16T06:04:47;15.30;99.90
21238;DHT22;10777;50.828;3.264;2022-10-16T06:07:12;15.30;99.90
21238;DHT22;10777;50.828;3.264;2022-10-16T06:09:38;15.40;99.90
21238;DHT22;10777;50.828;3.264;2022-10-16T06:12:03;15.20;99.90
21238;DHT22;10777;50.828;3.264;2022-10-16T06:14:29;15.10;99.90
21238;DHT22;10777;50.828;3.264;2022-10-16T06:16:55;15.20;99.90
21238;DHT22;10777;50.828;3.264;2022-10-16T06:19:20;15.30;99.90
21238;DHT22;10777;50.828;3.264;2022-10-16T06:21:46;15.40;99.90
21238;DHT22;10777;50.828;3.264;2022-10-16T06:24:12;15.30;99.90
21238;DHT22;10777;50.828;3.264;2022-10-16T06:26:38;15.40;99.90
21238;DHT22;10777;50.828;3.264;2022-10-16T06:29:04;15.30;99.90
21238;DHT22;10777;50.828;3.264;2022-10-16T06:31:29;15.50;99.90
21238;DHT22;10777;50.828;3.264;2022-10-16T06:33:58;15.50;99.90
21238;DHT22;10777;50.828;3.264;2022-10-16T06:36:24;15.40;99.90
21238;DHT22;10777;50.828;3.264;2022-10-16T06:38:51;15.40;99.90
21238;DHT22;10777;50.828;3.264;2022-10-16T06:41:19;15.20;99.90
21238;DHT22;10777;50.828;3.264;2022-10-16T06:43:45;15.20;99.90
21238;DHT22;10777;50.828;3.264;2022-10-16T06:46:13;15.20;99.90
21238;DHT22;10777;50.828;3.264;2022-10-16T06:48:39;15.20;99.90
21238;DHT22;10777;50.828;3.264;2022-10-16T06:51:09;15.20;99.90
21238;DHT22;10777;50.828;3.264;2022-10-16T06:53:42;15.40;99.90
21238;DHT22;10777;50.828;3.264;2022-10-16T06:56:19;15.50;99.90
21238;DHT22;10777;50.828;3.264;2022-10-16T06:58:45;15.50;99.90
21238;DHT22;10777;50.828;3.264;2022-10-16T07:01:11;15.20;99.90
21238;DHT22;10777;50.828;3.264;2022-10-16T07:03:39;15.10;99.90
21238;DHT22;10777;50.828;3.264;2022-10-16T07:06:06;15.20;99.90
21238;DHT22;10777;50.828;3.264;2022-10-16T07:08:33;15.30;99.90
21238;DHT22;10777;50.828;3.264;2022-10-16T07:11:05;15.10;99.90
21238;DHT22;10777;50.828;3.264;2022-10-16T07:13:35;15.20;99.90
21238;DHT22;10777;50.828;3.264;2022-10-16T07:16:19;15.40;99.90
21238;DHT22;10777;50.828;3.264;2022-10-16T07:18:46;15.30;99.90
21238;DHT22;10777;50.828;3.264;2022-10-16T07:21:17;15.30;99.90
21238;DHT22;10777;50.828;3.264;2022-10-16T07:23:44;15.50;99.90
21238;DHT22;10777;50.828;3.264;2022-10-16T07:26:11;15.60;99.90
21238;DHT22;10777;50.828;3.264;2022-10-16T07:28:37;15.50;99.90
21238;DHT22;10777;50.828;3.264;2022-10-16T07:31:05;15.70;99.90
21238;DHT22;10777;50.828;3.264;2022-10-16T07:33:32;15.50;99.90
21238;DHT22;10777;50.828;3.264;2022-10-16T07:35:58;15.50;99.90
21238;DHT22;10777;50.828;3.264;2022-10-16T07:38:23;15.50;99.90
21238;DHT22;10777;50.828;3.264;2022-10-16T07:40:56;15.50;99.90
21238;DHT22;10777;50.828;3.264;2022-10-16T07:43:23;15.60;99.90
21238;DHT22;10777;50.828;3.264;2022-10-16T07:45:49;15.60;99.90
21238;DHT22;10777;50.828;3.264;2022-10-16T07:48:16;15.80;99.90
21238;DHT22;10777;50.828;3.264;2022-10-16T07:50:42;15.90;99.90
21238;DHT22;10777;50.828;3.264;2022-10-16T07:53:08;16.10;99.90
21238;DHT22;10777;50.828;3.264;2022-10-16T07:55:34;16.30;99.90
21238;DHT22;10777;50.828;3.264;2022-10-16T07:57:59;16.40;99.90
21238;DHT22;10777;50.828;3.264;2022-10-16T08:00:25;16.40;99.90
21238;DHT22;10777;50.828;3.264;2022-10-16T08:02:51;16.50;99.90
21238;DHT22;10777;50.828;3.264;2022-10-16T08:05:16;16.60;99.90
21238;DHT22;10777;50.828;3.264;2022-10-16T08:07:42;16.60;99.90
21238;DHT22;10777;50.828;3.264;2022-10-16T08:10:16;16.80;99.90
21238;DHT22;10777;50.828;3.264;2022-10-16T08:12:42;16.70;99.90
21238;DHT22;10777;50.828;3.264;2022-10-16T08:15:08;16.70;99.90
21238;DHT22;10777;50.828;3.264;2022-10-16T08:17:34;16.80;99.90
21238;DHT22;10777;50.828;3.264;2022-10-16T08:20:00;16.80;99.90
21238;DHT22;10777;50.828;3.264;2022-10-16T08:22:26;16.90;99.90
21238;DHT22;10777;50.828;3.264;2022-10-16T08:24:51;16.90;99.90
21238;DHT22;10777;50.828;3.264;2022-10-16T08:27:17;17.00;99.90
21238;DHT22;10777;50.828;3.264;2022-10-16T08:29:42;17.00;99.90
21238;DHT22;10777;50.828;3.264;2022-10-16T08:32:08;17.00;99.90
21238;DHT22;10777;50.828;3.264;2022-10-16T08:34:34;17.00;99.90
21238;DHT22;10777;50.828;3.264;2022-10-16T08:36:59;17.10;99.90
21238;DHT22;10777;50.828;3.264;2022-10-16T08:39:25;17.10;99.90
21238;DHT22;10777;50.828;3.264;2022-10-16T08:42:07;17.00;99.90
21238;DHT22;10777;50.828;3.264;2022-10-16T08:44:51;17.20;99.90
21238;DHT22;10777;50.828;3.264;2022-10-16T08:47:24;17.30;99.90
21238;DHT22;10777;50.828;3.264;2022-10-16T08:50:00;17.50;99.90
21238;DHT22;10777;50.828;3.264;2022-10-16T08:52:32;17.40;99.90
21238;DHT22;10777;50.828;3.264;2022-10-16T08:55:00;17.40;99.90
21238;DHT22;10777;50.828;3.264;2022-10-16T08:57:27;17.40;99.90
21238;DHT22;10777;50.828;3.264;2022-10-16T08:59:53;17.50;99.90
21238;DHT22;10777;50.828;3.264;2022-10-16T09:02:42;17.70;99.90
21238;DHT22;10777;50.828;3.264;2022-10-16T09:05:38;17.90;99.90
21238;DHT22;10777;50.828;3.264;2022-10-16T09:08:28;18.00;99.90
21238;DHT22;10777;50.828;3.264;2022-10-16T09:11:19;17.90;99.90
21238;DHT22;10777;50.828;3.264;2022-10-16T09:14:15;18.10;99.90
21238;DHT22;10777;50.828;3.264;2022-10-16T09:16:46;18.00;99.90
21238;DHT22;10777;50.828;3.264;2022-10-16T09:22:15;18.00;99.90
21238;DHT22;10777;50.828;3.264;2022-10-16T09:24:41;17.80;99.90
21238;DHT22;10777;50.828;3.264;2022-10-16T09:27:11;17.90;99.90
21238;DHT22;10777;50.828;3.264;2022-10-16T09:29:37;18.20;99.90
21238;DHT22;10777;50.828;3.264;2022-10-16T09:32:20;18.20;99.90
21238;DHT22;10777;50.828;3.264;2022-10-16T09:34:50;18.40;99.90
21238;DHT22;10777;50.828;3.264;2022-10-16T09:37:20;18.40;99.90
21238;DHT22;10777;50.828;3.264;2022-10-16T09:39:49;18.40;99.90
21238;DHT22;10777;50.828;3.264;2022-10-16T09:42:18;18.50;99.90
21238;DHT22;10777;50.828;3.264;2022-10-16T09:44:48;18.70;99.90
21238;DHT22;10777;50.828;3.264;2022-10-16T09:47:19;19.00;99.90
21238;DHT22;10777;50.828;3.264;2022-10-16T09:49:55;19.00;99.90
21238;DHT22;10777;50.828;3.264;2022-10-16T09:52:23;18.80;99.90
21238;DHT22;10777;50.828;3.264;2022-10-16T09:54:54;19.00;99.90
21238;DHT22;10777;50.828;3.264;2022-10-16T09:57:21;18.90;99.90
21238;DHT22;10777;50.828;3.264;2022-10-16T09:59:51;18.70;99.90
21238;DHT22;10777;50.828;3.264;2022-10-16T10:02:19;18.80;99.90
21238;DHT22;10777;50.828;3.264;2022-10-16T10:04:51;19.00;99.90
21238;DHT22;10777;50.828;3.264;2022-10-16T10:07:25;19.20;99.90
21238;DHT22;10777;50.828;3.264;2022-10-16T10:09:53;19.30;99.90
21238;DHT22;10777;50.828;3.264;2022-10-16T10:12:24;19.30;99.90
21238;DHT22;10777;50.828;3.264;2022-10-16T10:14:52;19.20;99.90
21238;DHT22;10777;50.828;3.264;2022-10-16T10:17:23;19.40;99.90
21238;DHT22;10777;50.828;3.264;2022-10-16T10:22:46;19.50;99.90
21238;DHT22;10777;50.828;3.264;2022-10-16T10:28:24;19.50;99.90
21238;DHT22;10777;50.828;3.264;2022-10-16T10:30:59;19.50;99.90
21238;DHT22;10777;50.828;3.264;2022-10-16T10:33:48;19.30;99.90
21238;DHT22;10777;50.828;3.264;2022-10-16T10:36:36;19.00;99.90
21238;DHT22;10777;50.828;3.264;2022-10-16T10:39:25;19.30;99.90
21238;DHT22;10777;50.828;3.264;2022-10-16T10:42:25;19.60;99.90
21238;DHT22;10777;50.828;3.264;2022-10-16T10:47:57;19.10;99.90
21238;DHT22;10777;50.828;3.264;2022-10-16T10:50:46;18.80;99.90
21238;DHT22;10777;50.828;3.264;2022-10-16T10:53:34;19.00;99.90
21238;DHT22;10777;50.828;3.264;2022-10-16T10:56:24;19.30;99.90
21238;DHT22;10777;50.828;3.264;2022-10-16T11:01:58;19.40;99.90
21238;DHT22;10777;50.828;3.264;2022-10-16T11:04:50;19.40;99.90
21238;DHT22;10777;50.828;3.264;2022-10-16T11:10:27;19.40;99.90
21238;DHT22;10777;50.828;3.264;2022-10-16T11:13:00;19.40;99.90
21238;DHT22;10777;50.828;3.264;2022-10-16T11:15:32;19.60;99.90
21238;DHT22;10777;50.828;3.264;2022-10-16T11:18:06;19.60;99.90
21238;DHT22;10777;50.828;3.264;2022-10-16T11:20:40;19.70;99.90
21238;DHT22;10777;50.828;3.264;2022-10-16T11:26:17;20.40;99.90
21238;DHT22;10777;50.828;3.264;2022-10-16T11:28:49;20.20;99.90
21238;DHT22;10777;50.828;3.264;2022-10-16T11:31:27;20.00;99.90
21238;DHT22;10777;50.828;3.264;2022-10-16T11:37:05;20.10;99.90
21238;DHT22;10777;50.828;3.264;2022-10-16T11:39:34;20.30;99.90
21238;DHT22;10777;50.828;3.264;2022-10-16T11:42:25;20.30;99.90
21238;DHT22;10777;50.828;3.264;2022-10-16T11:45:22;20.40;99.90
21238;DHT22;10777;50.828;3.264;2022-10-16T11:47:57;20.40;99.90
21238;DHT22;10777;50.828;3.264;2022-10-16T11:50:37;20.30;99.90
21238;DHT22;10777;50.828;3.264;2022-10-16T11:53:35;20.40;99.90
21238;DHT22;10777;50.828;3.264;2022-10-16T11:56:04;20.30;99.90
21238;DHT22;10777;50.828;3.264;2022-10-16T11:58:41;20.30;99.90
21238;DHT22;10777;50.828;3.264;2022-10-16T12:01:36;20.20;99.90
21238;DHT22;10777;50.828;3.264;2022-10-16T12:07:17;20.70;99.90
21238;DHT22;10777;50.828;3.264;2022-10-16T12:09:45;21.40;99.90
21238;DHT22;10777;50.828;3.264;2022-10-16T12:12:37;21.30;99.90
21238;DHT22;10777;50.828;3.264;2022-10-16T12:15:27;21.60;99.90
21238;DHT22;10777;50.828;3.264;2022-10-16T12:17:55;22.00;99.90
21238;DHT22;10777;50.828;3.264;2022-10-16T12:20:31;22.80;99.90
21238;DHT22;10777;50.828;3.264;2022-10-16T12:23:00;22.70;99.90
21238;DHT22;10777;50.828;3.264;2022-10-16T12:25:31;22.50;99.90
21238;DHT22;10777;50.828;3.264;2022-10-16T12:28:05;22.00;99.90
21238;DHT22;10777;50.828;3.264;2022-10-16T12:30:35;21.80;99.90
21238;DHT22;10777;50.828;3.264;2022-10-16T12:33:05;21.80;99.90
21238;DHT22;10777;50.828;3.264;2022-10-16T12:35:35;21.50;99.90
21238;DHT22;10777;50.828;3.264;2022-10-16T12:38:17;21.50;99.90
21238;DHT22;10777;50.828;3.264;2022-10-16T12:40:45;22.60;99.90
21238;DHT22;10777;50.828;3.264;2022-10-16T12:43:41;23.30;99.90
21238;DHT22;10777;50.828;3.264;2022-10-16T12:46:38;23.20;99.90
21238;DHT22;10777;50.828;3.264;2022-10-16T12:49:29;23.00;99.90
21238;DHT22;10777;50.828;3.264;2022-10-16T12:51:53;23.00;99.90
21238;DHT22;10777;50.828;3.264;2022-10-16T12:54:34;23.30;99.90
21238;DHT22;10777;50.828;3.264;2022-10-16T12:57:29;23.20;99.90
21238;DHT22;10777;50.828;3.264;2022-10-16T13:00:24;22.40;99.90
21238;DHT22;10777;50.828;3.264;2022-10-16T13:03:20;22.10;99.90
21238;DHT22;10777;50.828;3.264;2022-10-16T13:06:28;21.60;99.90
21238;DHT22;10777;50.828;3.264;2022-10-16T13:09:19;21.50;99.90
21238;DHT22;10777;50.828;3.264;2022-10-16T13:12:09;21.20;99.90
21238;DHT22;10777;50.828;3.264;2022-10-16T13:15:07;20.90;99.90
21238;DHT22;10777;50.828;3.264;2022-10-16T13:18:04;20.80;99.90
21238;DHT22;10777;50.828;3.264;2022-10-16T13:20:46;20.70;99.90
21238;DHT22;10777;50.828;3.264;2022-10-16T13:23:32;20.50;99.90
21238;DHT22;10777;50.828;3.264;2022-10-16T13:29:05;20.50;99.90
21238;DHT22;10777;50.828;3.264;2022-10-16T13:31:32;20.40;99.90
21238;DHT22;10777;50.828;3.264;2022-10-16T13:33:59;20.20;99.90
21238;DHT22;10777;50.828;3.264;2022-10-16T13:36:29;20.00;99.90
21238;DHT22;10777;50.828;3.264;2022-10-16T13:39:20;20.00;99.90
21238;DHT22;10777;50.828;3.264;2022-10-16T13:41:58;20.10;99.90
21238;DHT22;10777;50.828;3.264;2022-10-16T13:44:26;20.20;99.90
21238;DHT22;10777;50.828;3.264;2022-10-16T13:47:15;20.10;99.90
21238;DHT22;10777;50.828;3.264;2022-10-16T13:49:41;20.10;99.90
21238;DHT22;10777;50.828;3.264;2022-10-16T13:52:18;20.20;99.90
21238;DHT22;10777;50.828;3.264;2022-10-16T13:54:44;20.30;99.90
21238;DHT22;10777;50.828;3.264;2022-10-16T13:57:14;20.30;99.90
21238;DHT22;10777;50.828;3.264;2022-10-16T13:59:40;20.40;99.90
21238;DHT22;10777;50.828;3.264;2022-10-16T14:02:28;20.50;99.90
21238;DHT22;10777;50.828;3.264;2022-10-16T14:04:54;20.50;99.90
21238;DHT22;10777;50.828;3.264;2022-10-16T14:07:25;20.40;99.90
21238;DHT22;10777;50.828;3.264;2022-10-16T14:09:52;20.40;99.90
21238;DHT22;10777;50.828;3.264;2022-10-16T14:12:19;20.40;99.90
21238;DHT22;10777;50.828;3.264;2022-10-16T14:14:47;20.30;99.90
21238;DHT22;10777;50.828;3.264;2022-10-16T14:17:15;20.50;99.90
21238;DHT22;10777;50.828;3.264;2022-10-16T14:19:46;20.40;99.90
21238;DHT22;10777;50.828;3.264;2022-10-16T14:22:34;20.30;99.90
21238;DHT22;10777;50.828;3.264;2022-10-16T14:25:00;20.20;99.90
21238;DHT22;10777;50.828;3.264;2022-10-16T14:27:32;19.80;99.90
21238;DHT22;10777;50.828;3.264;2022-10-16T14:30:15;19.90;99.90
21238;DHT22;10777;50.828;3.264;2022-10-16T14:32:51;19.80;99.90
21238;DHT22;10777;50.828;3.264;2022-10-16T14:35:27;20.10;99.90
21238;DHT22;10777;50.828;3.264;2022-10-16T14:37:54;20.20;99.90
21238;DHT22;10777;50.828;3.264;2022-10-16T14:40:24;20.10;99.90
21238;DHT22;10777;50.828;3.264;2022-10-16T14:42:50;19.90;99.90
21238;DHT22;10777;50.828;3.264;2022-10-16T14:45:34;20.10;99.90
21238;DHT22;10777;50.828;3.264;2022-10-16T14:48:02;19.90;99.90
21238;DHT22;10777;50.828;3.264;2022-10-16T14:50:29;19.90;99.90
21238;DHT22;10777;50.828;3.264;2022-10-16T14:52:55;19.80;99.90
21238;DHT22;10777;50.828;3.264;2022-10-16T14:55:21;19.70;99.90
21238;DHT22;10777;50.828;3.264;2022-10-16T14:57:47;19.50;99.90
21238;DHT22;10777;50.828;3.264;2022-10-16T15:00:23;19.50;99.90
21238;DHT22;10777;50.828;3.264;2022-10-16T15:02:49;19.80;99.90
21238;DHT22;10777;50.828;3.264;2022-10-16T15:05:21;19.90;99.90
21238;DHT22;10777;50.828;3.264;2022-10-16T15:07:48;19.90;99.90
21238;DHT22;10777;50.828;3.264;2022-10-16T15:10:16;19.80;99.90
21238;DHT22;10777;50.828;3.264;2022-10-16T15:12:43;19.70;99.90
21238;DHT22;10777;50.828;3.264;2022-10-16T15:15:43;19.60;99.90
21238;DHT22;10777;50.828;3.264;2022-10-16T15:18:09;19.70;99.90
21238;DHT22;10777;50.828;3.264;2022-10-16T15:20:37;19.70;99.90
21238;DHT22;10777;50.828;3.264;2022-10-16T15:23:06;19.70;99.90
21238;DHT22;10777;50.828;3.264;2022-10-16T15:25:37;19.60;99.90
21238;DHT22;10777;50.828;3.264;2022-10-16T15:28:05;19.50;99.90
21238;DHT22;10777;50.828;3.264;2022-10-16T15:30:32;19.60;99.90
21238;DHT22;10777;50.828;3.264;2022-10-16T15:32:58;19.80;99.90
21238;DHT22;10777;50.828;3.264;2022-10-16T15:35:24;19.60;99.90
21238;DHT22;10777;50.828;3.264;2022-10-16T15:37:50;19.50;99.90
21238;DHT22;10777;50.828;3.264;2022-10-16T15:40:17;19.40;99.90
21238;DHT22;10777;50.828;3.264;2022-10-16T15:42:44;19.40;99.90
21238;DHT22;10777;50.828;3.264;2022-10-16T15:45:11;19.50;99.90
21238;DHT22;10777;50.828;3.264;2022-10-16T15:47:37;19.40;99.90
21238;DHT22;10777;50.828;3.264;2022-10-16T15:50:03;19.40;99.90
21238;DHT22;10777;50.828;3.264;2022-10-16T15:52:29;19.50;99.90
21238;DHT22;10777;50.828;3.264;2022-10-16T15:54:57;19.70;99.90
21238;DHT22;10777;50.828;3.264;2022-10-16T15:57:23;19.90;99.90
21238;DHT22;10777;50.828;3.264;2022-10-16T15:59:49;19.70;99.90
21238;DHT22;10777;50.828;3.264;2022-10-16T16:02:15;19.60;99.90
21238;DHT22;10777;50.828;3.264;2022-10-16T16:04:41;19.70;99.90
21238;DHT22;10777;50.828;3.264;2022-10-16T16:07:06;19.70;99.90
21238;DHT22;10777;50.828;3.264;2022-10-16T16:09:33;19.60;99.90
21238;DHT22;10777;50.828;3.264;2022-10-16T16:11:59;19.40;99.90
21238;DHT22;10777;50.828;3.264;2022-10-16T16:14:26;19.40;99.90
21238;DHT22;10777;50.828;3.264;2022-10-16T16:16:54;19.60;99.90
21238;DHT22;10777;50.828;3.264;2022-10-16T16:19:19;19.60;99.90
21238;DHT22;10777;50.828;3.264;2022-10-16T16:21:47;19.60;99.90
21238;DHT22;10777;50.828;3.264;2022-10-16T16:24:12;19.60;99.90